createdAt,value
2018-07-05T00:01:04.569Z,40.89
2018-07-05T00:02:13.458Z,41.08
2018-07-05T00:03:22.855Z,40.69
2018-07-05T00:04:31.993Z,40.89
2018-07-05T00:05:41.138Z,40.89
2018-07-05T00:06:50.537Z,40.97
2018-07-05T00:07:59.684Z,40.99
2018-07-05T00:09:09.352Z,40.99
2018-07-05T00:10:19.024Z,40.79
2018-07-05T00:11:28.425Z,40.99
2018-07-05T00:12:38.090Z,41.16
2018-07-05T00:13:47.493Z,41.08
2018-07-05T00:14:56.895Z,41.18
2018-07-05T00:16:06.548Z,41.18
2018-07-05T00:17:15.440Z,41.38
2018-07-05T00:18:25.101Z,41.38
2018-07-05T00:19:34.755Z,41.18
2018-07-05T00:20:44.410Z,41.38
2018-07-05T00:21:54.067Z,41.47
2018-07-05T00:23:03.466Z,41.28
2018-07-05T00:24:13.116Z,41.57
2018-07-05T00:25:22.776Z,41.47
2018-07-05T00:26:32.685Z,41.45
2018-07-05T00:27:42.084Z,41.45
2018-07-05T00:28:51.490Z,41.57
2018-07-05T00:30:00.640Z,41.64
2018-07-05T00:31:09.531Z,41.45
2018-07-05T00:32:19.188Z,41.57
2018-07-05T00:33:27.818Z,41.64
2018-07-05T00:34:37.218Z,41.77
2018-07-05T00:35:46.374Z,41.57
2018-07-05T00:36:55.787Z,41.64
2018-07-05T00:38:04.924Z,41.67
2018-07-05T00:39:14.575Z,41.67
2018-07-05T00:40:24.233Z,42.25
2018-07-05T00:41:34.149Z,41.86
2018-07-05T00:42:43.548Z,42.05
2018-07-05T00:43:53.462Z,42.05
2018-07-05T00:45:02.889Z,41.96
2018-07-05T00:46:12.034Z,42.05
2018-07-05T00:47:21.690Z,41.86
2018-07-05T00:48:30.839Z,42.05
2018-07-05T00:49:40.502Z,42.25
2018-07-05T00:50:49.645Z,42.05
2018-07-05T00:51:58.793Z,42.15
2018-07-05T00:53:08.471Z,42.15
2018-07-05T00:54:17.374Z,41.96
2018-07-05T00:55:26.527Z,42.25
2018-07-05T00:56:35.936Z,42.35
2018-07-05T00:57:45.856Z,42.54
2018-07-05T00:58:55.254Z,42.35
2018-07-05T01:00:04.145Z,42.13
2018-07-05T01:01:13.546Z,42.33
2018-07-05T01:02:23.220Z,42.33
2018-07-05T01:03:32.630Z,42.25
2018-07-05T01:04:42.288Z,42.43
2018-07-05T01:05:51.444Z,42.44
2018-07-05T01:07:00.334Z,42.52
2018-07-05T01:08:09.540Z,42.52
2018-07-05T01:09:19.229Z,42.52
2018-07-05T01:10:28.130Z,42.61
2018-07-05T01:11:37.280Z,42.43
2018-07-05T01:12:46.681Z,42.81
2018-07-05T01:13:56.602Z,42.52
2018-07-05T01:15:05.755Z,42.61
2018-07-05T01:16:15.680Z,42.61
2018-07-05T01:17:24.929Z,42.52
2018-07-05T01:18:34.335Z,42.61
2018-07-05T01:19:43.242Z,42.81
2018-07-05T01:20:52.919Z,42.71
2018-07-05T01:22:02.621Z,42.81
2018-07-05T01:23:12.043Z,42.52
2018-07-05T01:24:21.188Z,42.43
2018-07-05T01:25:30.586Z,42.81
2018-07-05T01:26:39.983Z,42.71
2018-07-05T01:27:49.635Z,42.81
2018-07-05T01:28:58.841Z,42.81
2018-07-05T01:30:07.734Z,43.1
2018-07-05T01:31:17.639Z,43.1
2018-07-05T01:32:26.527Z,43.1
2018-07-05T01:33:36.186Z,43.1
2018-07-05T01:34:45.862Z,43.01
2018-07-05T01:35:55.265Z,43.2
2018-07-05T01:37:04.683Z,43.01
2018-07-05T01:38:13.827Z,43.1
2018-07-05T01:39:22.989Z,43.01
2018-07-05T01:40:31.881Z,43.3
2018-07-05T01:41:41.033Z,43.4
2018-07-05T01:42:50.175Z,43.4
2018-07-05T01:43:59.576Z,43.4
2018-07-05T01:45:08.976Z,43.4
2018-07-05T01:46:18.397Z,43.4
2018-07-05T01:47:27.534Z,43.4
2018-07-05T01:48:37.198Z,43.01
2018-07-05T01:49:46.870Z,43.1
2018-07-05T01:50:56.284Z,43.2
2018-07-05T01:52:05.437Z,43.2
2018-07-05T01:53:15.104Z,43.2
2018-07-05T01:54:24.268Z,43.2
2018-07-05T01:55:33.677Z,43.4
2018-07-05T01:56:43.337Z,43.4
2018-07-05T01:57:52.749Z,43.2
2018-07-05T01:59:02.420Z,43.3
2018-07-05T02:00:11.566Z,43.2
2018-07-05T02:01:21.243Z,43.4
2018-07-05T02:02:30.899Z,43.2
2018-07-05T02:03:40.054Z,43.2
2018-07-05T02:04:48.944Z,43.2
2018-07-05T02:05:58.870Z,43.4
2018-07-05T02:07:08.286Z,43.4
2018-07-05T02:08:17.447Z,43.4
2018-07-05T02:09:26.610Z,43.59
2018-07-05T02:10:35.501Z,43.59
2018-07-05T02:11:44.928Z,43.3
2018-07-05T02:12:54.648Z,43.68
2018-07-05T02:14:04.339Z,43.78
2018-07-05T02:15:13.769Z,44.17
2018-07-05T02:16:22.662Z,43.78
2018-07-05T02:17:32.117Z,43.88
2018-07-05T02:18:41.252Z,43.88
2018-07-05T02:19:50.662Z,43.88
2018-07-05T02:20:59.821Z,43.98
2018-07-05T02:22:08.967Z,43.98
2018-07-05T02:23:18.637Z,43.98
2018-07-05T02:24:28.036Z,44.07
2018-07-05T02:25:37.445Z,43.98
2018-07-05T02:26:46.836Z,43.98
2018-07-05T02:27:56.249Z,43.98
2018-07-05T02:29:05.911Z,43.98
2018-07-05T02:30:15.062Z,43.98
2018-07-05T02:31:24.471Z,43.98
2018-07-05T02:32:34.414Z,43.88
2018-07-05T02:33:43.584Z,44
2018-07-05T02:34:52.987Z,43.9
2018-07-05T02:36:02.648Z,43.98
2018-07-05T02:37:12.305Z,43.98
2018-07-05T02:38:21.738Z,44
2018-07-05T02:39:31.672Z,43.9
2018-07-05T02:40:41.331Z,44
2018-07-05T02:41:51.014Z,44
2018-07-05T02:43:00.667Z,44
2018-07-05T02:44:10.081Z,43.98
2018-07-05T02:45:19.743Z,43.9
2018-07-05T02:46:29.148Z,43.8
2018-07-05T02:47:38.559Z,44
2018-07-05T02:48:48.486Z,43.8
2018-07-05T02:49:57.632Z,43.8
2018-07-05T02:51:07.053Z,43.88
2018-07-05T02:52:16.762Z,43.9
2018-07-05T02:53:26.684Z,43.78
2018-07-05T02:54:36.373Z,43.78
2018-07-05T02:55:46.316Z,43.8
2018-07-05T02:56:55.729Z,43.9
2018-07-05T02:58:05.133Z,44
2018-07-05T02:59:14.821Z,43.98
2018-07-05T03:00:23.973Z,43.8
2018-07-05T03:01:33.406Z,43.8
2018-07-05T03:02:43.108Z,43.8
2018-07-05T03:03:52.779Z,43.8
2018-07-05T03:05:02.193Z,43.9
2018-07-05T03:06:11.868Z,43.9
2018-07-05T03:07:21.274Z,43.8
2018-07-05T03:08:30.952Z,43.8
2018-07-05T03:09:40.870Z,43.8
2018-07-05T03:10:50.540Z,44.19
2018-07-05T03:12:00.458Z,44.19
2018-07-05T03:13:09.891Z,44.37
2018-07-05T03:14:19.826Z,44.27
2018-07-05T03:15:29.230Z,43.98
2018-07-05T03:16:38.382Z,44.19
2018-07-05T03:17:48.057Z,44.19
2018-07-05T03:18:57.980Z,44.09
2018-07-05T03:20:07.917Z,44.07
2018-07-05T03:21:17.597Z,44.37
2018-07-05T03:22:27.520Z,44.56
2018-07-05T03:23:36.669Z,44.65
2018-07-05T03:24:45.865Z,44.46
2018-07-05T03:25:55.282Z,44.48
2018-07-05T03:27:04.462Z,44.27
2018-07-05T03:28:13.868Z,44.46
2018-07-05T03:29:23.535Z,44.48
2018-07-05T03:30:32.934Z,44.27
2018-07-05T03:31:42.595Z,44.37
2018-07-05T03:32:52.005Z,44.38
2018-07-05T03:34:01.677Z,44.46
2018-07-05T03:35:10.599Z,44.27
2018-07-05T03:36:20.015Z,44.27
2018-07-05T03:37:29.483Z,44.29
2018-07-05T03:38:38.635Z,44.27
2018-07-05T03:39:47.781Z,44.37
2018-07-05T03:40:56.688Z,44.37
2018-07-05T03:42:06.084Z,44.17
2018-07-05T03:43:16.001Z,44.46
2018-07-05T03:44:25.677Z,44.56
2018-07-05T03:45:34.819Z,44.46
2018-07-05T03:46:43.976Z,44.46
2018-07-05T03:47:53.131Z,44.46
2018-07-05T03:49:02.531Z,44.65
2018-07-05T03:50:11.684Z,44.65
2018-07-05T03:51:20.845Z,45.14
2018-07-05T03:52:30.267Z,45.04
2018-07-05T03:53:39.675Z,45.14
2018-07-05T03:54:49.588Z,44.95
2018-07-05T03:55:59.253Z,44.95
2018-07-05T03:57:08.401Z,44.85
2018-07-05T03:58:17.808Z,44.85
2018-07-05T03:59:27.218Z,44.65
2018-07-05T04:00:36.643Z,45.14
2018-07-05T04:01:46.317Z,45.24
2018-07-05T04:02:55.971Z,45.14
2018-07-05T04:04:05.380Z,45.04
2018-07-05T04:05:14.546Z,45.24
2018-07-05T04:06:24.214Z,44.95
2018-07-05T04:07:33.880Z,45.24
2018-07-05T04:08:43.280Z,45.14
2018-07-05T04:09:52.689Z,45.04
2018-07-05T04:11:01.830Z,45.21
2018-07-05T04:12:11.289Z,45.51
2018-07-05T04:13:20.432Z,45.51
2018-07-05T04:14:30.093Z,45.34
2018-07-05T04:15:39.753Z,45.21
2018-07-05T04:16:49.249Z,45.61
2018-07-05T04:17:59.164Z,45.7
2018-07-05T04:19:08.311Z,45.61
2018-07-05T04:20:17.714Z,45.51
2018-07-05T04:21:26.601Z,45.8
2018-07-05T04:22:36.259Z,45.31
2018-07-05T04:23:45.147Z,45.31
2018-07-05T04:24:54.604Z,45.61
2018-07-05T04:26:04.366Z,45.72
2018-07-05T04:27:13.514Z,45.61
2018-07-05T04:28:22.914Z,45.7
2018-07-05T04:29:32.058Z,45.21
2018-07-05T04:30:41.727Z,45.7
2018-07-05T04:31:51.655Z,45.41
2018-07-05T04:33:00.289Z,45.41
2018-07-05T04:34:09.720Z,45.51
2018-07-05T04:35:19.712Z,45.41
2018-07-05T04:36:28.620Z,45.31
2018-07-05T04:37:38.550Z,45.31
2018-07-05T04:38:47.951Z,45.34
2018-07-05T04:39:57.398Z,45.31
2018-07-05T04:41:06.289Z,45.51
2018-07-05T04:42:15.426Z,45.51
2018-07-05T04:43:24.311Z,45.41
2018-07-05T04:44:33.716Z,45.51
2018-07-05T04:45:42.357Z,45.51
2018-07-05T04:46:52.034Z,45.8
2018-07-05T04:48:02.095Z,45.7
2018-07-05T04:49:11.770Z,45.7
2018-07-05T04:50:21.176Z,46.09
2018-07-05T04:51:30.842Z,45.99
2018-07-05T04:52:40.507Z,46.09
2018-07-05T04:53:50.195Z,46.09
2018-07-05T04:54:59.867Z,46.19
2018-07-05T04:56:09.540Z,45.99
2018-07-05T04:57:18.960Z,45.7
2018-07-05T04:58:27.854Z,45.8
2018-07-05T04:59:37.005Z,45.62
2018-07-05T05:00:46.658Z,45.89
2018-07-05T05:01:55.828Z,45.7
2018-07-05T05:03:05.231Z,45.8
2018-07-05T05:04:14.634Z,45.61
2018-07-05T05:05:23.832Z,45.61
2018-07-05T05:06:32.461Z,45.8
2018-07-05T05:07:41.661Z,45.61
2018-07-05T05:08:51.457Z,45.72
2018-07-05T05:10:00.857Z,45.7
2018-07-05T05:11:10.268Z,46.11
2018-07-05T05:12:20.367Z,45.82
2018-07-05T05:13:29.255Z,46.01
2018-07-05T05:14:38.662Z,46.09
2018-07-05T05:15:48.054Z,46.11
2018-07-05T05:16:57.520Z,46.11
2018-07-05T05:18:07.191Z,46.11
2018-07-05T05:19:16.858Z,46.11
2018-07-05T05:20:26.022Z,46.21
2018-07-05T05:21:35.685Z,46.01
2018-07-05T05:22:45.086Z,45.82
2018-07-05T05:23:54.232Z,46.11
2018-07-05T05:25:03.910Z,46.31
2018-07-05T05:26:13.750Z,46.31
2018-07-05T05:27:22.912Z,46.01
2018-07-05T05:28:32.071Z,45.82
2018-07-05T05:29:41.217Z,46.31
2018-07-05T05:30:50.877Z,46.31
2018-07-05T05:32:00.075Z,46.11
2018-07-05T05:33:09.730Z,46.11
2018-07-05T05:34:19.643Z,46.21
2018-07-05T05:35:29.047Z,46.11
2018-07-05T05:36:37.961Z,46.01
2018-07-05T05:37:47.624Z,46.01
2018-07-05T05:38:57.100Z,46.01
2018-07-05T05:40:07.505Z,46.11
2018-07-05T05:41:17.418Z,46.11
2018-07-05T05:42:26.562Z,46.01
2018-07-05T05:43:35.973Z,46.11
2018-07-05T05:44:45.113Z,46.11
2018-07-05T05:45:54.518Z,46.11
2018-07-05T05:47:03.659Z,46.11
2018-07-05T05:48:13.186Z,46.11
2018-07-05T05:49:22.384Z,46.11
2018-07-05T05:50:31.291Z,46.11
2018-07-05T05:51:40.694Z,46.11
2018-07-05T05:52:49.849Z,46.11
2018-07-05T05:53:59.257Z,46.11
2018-07-05T05:55:08.192Z,46.11
2018-07-05T05:56:17.603Z,46.11
2018-07-05T05:57:26.490Z,46.11
2018-07-05T05:58:35.917Z,46.11
2018-07-05T05:59:44.822Z,46.01
2018-07-05T06:00:53.720Z,45.92
2018-07-05T06:02:03.640Z,45.92
2018-07-05T06:03:13.318Z,46.01
2018-07-05T06:04:22.476Z,46.11
2018-07-05T06:05:31.377Z,46.11
2018-07-05T06:06:40.017Z,46.11
2018-07-05T06:07:49.734Z,46.11
2018-07-05T06:08:59.207Z,46.11
2018-07-05T06:10:08.874Z,46.31
2018-07-05T06:11:17.503Z,46.11
2018-07-05T06:12:26.463Z,46.31
2018-07-05T06:13:35.629Z,46.01
2018-07-05T06:14:44.777Z,46.14
2018-07-05T06:15:53.951Z,45.94
2018-07-05T06:17:03.353Z,46.21
2018-07-05T06:18:13.011Z,46.01
2018-07-05T06:19:22.418Z,46.14
2018-07-05T06:20:31.820Z,46.14
2018-07-05T06:21:40.985Z,46.11
2018-07-05T06:22:50.919Z,46.14
2018-07-05T06:24:00.322Z,46.11
2018-07-05T06:25:10.257Z,46.14
2018-07-05T06:26:19.152Z,46.14
2018-07-05T06:27:28.557Z,46.01
2018-07-05T06:28:37.962Z,46.04
2018-07-05T06:29:47.401Z,46.04
2018-07-05T06:30:56.819Z,46.14
2018-07-05T06:32:05.731Z,46.01
2018-07-05T06:33:15.155Z,46.14
2018-07-05T06:34:24.581Z,46.04
2018-07-05T06:35:33.742Z,45.92
2018-07-05T06:36:43.159Z,46.23
2018-07-05T06:37:52.579Z,46.01
2018-07-05T06:39:02.256Z,45.94
2018-07-05T06:40:11.418Z,46.04
2018-07-05T06:41:21.098Z,45.94
2018-07-05T06:42:30.502Z,46.01
2018-07-05T06:43:39.673Z,46.01
2018-07-05T06:44:48.827Z,46.04
2018-07-05T06:45:57.988Z,46.04
2018-07-05T06:47:07.419Z,46.04
2018-07-05T06:48:17.106Z,45.75
2018-07-05T06:49:26.790Z,46.11
2018-07-05T06:50:37.082Z,46.14
2018-07-05T06:51:46.755Z,45.82
2018-07-05T06:52:56.446Z,45.75
2018-07-05T06:54:06.258Z,46.14
2018-07-05T06:55:15.928Z,45.94
2018-07-05T06:56:25.590Z,46.14
2018-07-05T06:57:34.997Z,45.72
2018-07-05T06:58:44.145Z,46.11
2018-07-05T06:59:53.046Z,46.14
2018-07-05T07:01:02.214Z,46.04
2018-07-05T07:02:11.637Z,46.14
2018-07-05T07:03:21.581Z,45.75
2018-07-05T07:04:31.499Z,45.94
2018-07-05T07:05:40.697Z,45.82
2018-07-05T07:06:49.603Z,45.75
2018-07-05T07:07:59.084Z,45.75
2018-07-05T07:09:09.261Z,45.92
2018-07-05T07:10:18.685Z,45.75
2018-07-05T07:11:28.348Z,45.94
2018-07-05T07:12:38.021Z,45.75
2018-07-05T07:13:47.431Z,45.75
2018-07-05T07:14:57.273Z,45.72
2018-07-05T07:16:06.726Z,45.94
2018-07-05T07:17:16.382Z,46.04
2018-07-05T07:18:26.058Z,45.75
2018-07-05T07:19:36.417Z,45.75
2018-07-05T07:20:45.835Z,45.72
2018-07-05T07:21:55.277Z,45.72
2018-07-05T07:23:04.960Z,45.82
2018-07-05T07:24:14.634Z,45.92
2018-07-05T07:25:24.549Z,45.94
2018-07-05T07:26:33.960Z,45.75
2018-07-05T07:27:42.865Z,45.82
2018-07-05T07:28:52.522Z,45.53
2018-07-05T07:30:01.675Z,45.75
2018-07-05T07:31:11.355Z,46.14
2018-07-05T07:32:20.958Z,45.75
2018-07-05T07:33:30.365Z,45.92
2018-07-05T07:34:39.514Z,45.75
2018-07-05T07:35:49.426Z,45.75
2018-07-05T07:36:59.096Z,45.75
2018-07-05T07:38:08.764Z,46.04
2018-07-05T07:39:17.914Z,45.94
2018-07-05T07:40:27.577Z,45.75
2018-07-05T07:41:36.489Z,45.75
2018-07-05T07:42:46.432Z,45.75
2018-07-05T07:43:55.594Z,46.23
2018-07-05T07:45:04.741Z,46.14
2018-07-05T07:46:13.921Z,46.04
2018-07-05T07:47:23.628Z,46.04
2018-07-05T07:48:33.339Z,46.04
2018-07-05T07:49:42.490Z,46.01
2018-07-05T07:50:51.903Z,46.01
2018-07-05T07:52:01.080Z,46.01
2018-07-05T07:53:10.046Z,46.04
2018-07-05T07:54:19.727Z,46.04
2018-07-05T07:55:29.390Z,46.14
2018-07-05T07:56:38.548Z,46.14
2018-07-05T07:57:47.703Z,46.14
2018-07-05T07:58:57.129Z,46.14
2018-07-05T08:00:06.544Z,46.14
2018-07-05T08:01:16.217Z,46.14
2018-07-05T08:02:25.373Z,46.04
2018-07-05T08:03:34.593Z,46.14
2018-07-05T08:04:44.265Z,46.14
2018-07-05T08:05:53.674Z,46.14
2018-07-05T08:07:02.838Z,46.14
2018-07-05T08:08:12.304Z,46.04
2018-07-05T08:09:22.553Z,46.14
2018-07-05T08:10:32.225Z,46.14
2018-07-05T08:11:41.443Z,45.94
2018-07-05T08:12:50.620Z,46.04
2018-07-05T08:14:00.039Z,46.14
2018-07-05T08:15:09.057Z,46.23
2018-07-05T08:16:18.628Z,46.14
2018-07-05T08:17:27.537Z,46.33
2018-07-05T08:18:37.214Z,46.04
2018-07-05T08:19:46.394Z,46.04
2018-07-05T08:20:55.550Z,46.23
2018-07-05T08:22:05.251Z,46.14
2018-07-05T08:23:14.411Z,46.04
2018-07-05T08:24:23.556Z,45.94
2018-07-05T08:25:32.982Z,46.11
2018-07-05T08:26:41.870Z,46.33
2018-07-05T08:27:51.570Z,45.84
2018-07-05T08:29:01.239Z,46.14
2018-07-05T08:30:10.386Z,46.33
2018-07-05T08:31:20.136Z,46.33
2018-07-05T08:32:29.632Z,46.23
2018-07-05T08:33:39.049Z,46.23
2018-07-05T08:34:48.220Z,45.75
2018-07-05T08:35:57.626Z,46.23
2018-07-05T08:37:07.040Z,46.04
2018-07-05T08:38:15.985Z,45.75
2018-07-05T08:39:25.652Z,45.84
2018-07-05T08:40:35.114Z,45.84
2018-07-05T08:41:44.023Z,45.84
2018-07-05T08:42:53.192Z,45.84
2018-07-05T08:44:03.122Z,45.84
2018-07-05T08:45:12.537Z,45.84
2018-07-05T08:46:21.967Z,45.65
2018-07-05T08:47:31.646Z,45.84
2018-07-05T08:48:41.175Z,45.84
2018-07-05T08:49:51.129Z,45.45
2018-07-05T08:51:00.563Z,45.84
2018-07-05T08:52:09.884Z,45.65
2018-07-05T08:53:19.043Z,45.45
2018-07-05T08:54:28.554Z,45.75
2018-07-05T08:55:38.220Z,45.36
2018-07-05T08:56:47.899Z,45.75
2018-07-05T08:57:57.326Z,45.36
2018-07-05T08:59:07.261Z,45.55
2018-07-05T09:00:17.180Z,45.55
2018-07-05T09:01:26.602Z,45.65
2018-07-05T09:02:36.295Z,45.45
2018-07-05T09:03:45.982Z,45.45
2018-07-05T09:04:55.396Z,45.36
2018-07-05T09:06:04.824Z,45.75
2018-07-05T09:07:14.310Z,45.55
2018-07-05T09:08:24.295Z,45.65
2018-07-05T09:09:33.267Z,45.55
2018-07-05T09:10:42.430Z,45.45
2018-07-05T09:11:52.203Z,45.55
2018-07-05T09:13:02.211Z,45.45
2018-07-05T09:14:11.377Z,45.36
2018-07-05T09:15:20.524Z,45.36
2018-07-05T09:16:30.198Z,45.36
2018-07-05T09:17:40.129Z,45.26
2018-07-05T09:18:49.229Z,45.55
2018-07-05T09:19:59.339Z,45.75
2018-07-05T09:21:09.005Z,45.75
2018-07-05T09:22:18.428Z,45.65
2018-07-05T09:23:27.918Z,45.65
2018-07-05T09:24:38.668Z,45.75
2018-07-05T09:25:48.085Z,45.75
2018-07-05T09:26:57.751Z,45.75
2018-07-05T09:28:06.660Z,45.75
2018-07-05T09:29:16.082Z,45.75
2018-07-05T09:30:25.395Z,45.75
2018-07-05T09:31:35.084Z,45.55
2018-07-05T09:32:43.726Z,45.75
2018-07-05T09:33:53.145Z,45.75
2018-07-05T09:35:02.299Z,45.75
2018-07-05T09:36:11.715Z,45.65
2018-07-05T09:37:20.950Z,45.45
2018-07-05T09:38:30.660Z,45.55
2018-07-05T09:39:39.649Z,45.45
2018-07-05T09:40:49.060Z,45.45
2018-07-05T09:41:58.730Z,45.45
2018-07-05T09:43:08.151Z,45.45
2018-07-05T09:44:17.561Z,45.45
2018-07-05T09:45:26.990Z,45.45
2018-07-05T09:46:36.439Z,45.45
2018-07-05T09:47:45.605Z,45.45
2018-07-05T09:48:55.275Z,45.94
2018-07-05T09:50:04.440Z,45.94
2018-07-05T09:51:14.365Z,45.94
2018-07-05T09:52:24.331Z,45.36
2018-07-05T09:53:34.550Z,45.94
2018-07-05T09:54:43.500Z,45.84
2018-07-05T09:55:52.976Z,45.65
2018-07-05T09:57:01.917Z,45.55
2018-07-05T09:58:11.926Z,45.65
2018-07-05T09:59:21.076Z,45.84
2018-07-05T10:00:30.485Z,45.55
2018-07-05T10:01:39.924Z,45.75
2018-07-05T10:02:48.824Z,45.55
2018-07-05T10:03:58.226Z,45.55
2018-07-05T10:05:07.381Z,45.65
2018-07-05T10:06:16.530Z,45.65
2018-07-05T10:07:26.201Z,45.55
2018-07-05T10:08:35.615Z,45.75
2018-07-05T10:09:45.023Z,45.75
2018-07-05T10:10:54.962Z,45.65
2018-07-05T10:12:04.404Z,45.36
2018-07-05T10:13:14.421Z,45.75
2018-07-05T10:14:24.904Z,45.75
2018-07-05T10:15:34.853Z,45.75
2018-07-05T10:16:44.564Z,45.65
2018-07-05T10:17:53.734Z,45.55
2018-07-05T10:19:03.144Z,45.36
2018-07-05T10:20:12.554Z,45.17
2018-07-05T10:21:21.973Z,45.36
2018-07-05T10:22:31.147Z,45.36
2018-07-05T10:23:40.822Z,45.55
2018-07-05T10:24:50.485Z,45.55
2018-07-05T10:26:00.118Z,45.26
2018-07-05T10:27:09.600Z,45.45
2018-07-05T10:28:19.057Z,45.36
2018-07-05T10:29:28.488Z,45.55
2018-07-05T10:30:37.924Z,45.55
2018-07-05T10:31:47.619Z,45.55
2018-07-05T10:32:57.342Z,45.45
2018-07-05T10:34:06.831Z,45.55
2018-07-05T10:35:15.472Z,45.36
2018-07-05T10:36:25.174Z,45.55
2018-07-05T10:37:34.868Z,45.55
2018-07-05T10:38:44.278Z,45.55
2018-07-05T10:39:53.450Z,45.36
2018-07-05T10:41:03.131Z,45.36
2018-07-05T10:42:12.297Z,45.55
2018-07-05T10:43:21.975Z,45.36
2018-07-05T10:44:31.386Z,45.45
2018-07-05T10:45:40.828Z,45.36
2018-07-05T10:46:50.500Z,45.36
2018-07-05T10:48:00.166Z,45.45
2018-07-05T10:49:09.586Z,45.36
2018-07-05T10:50:19.261Z,45.36
2018-07-05T10:51:28.936Z,45.45
2018-07-05T10:52:38.418Z,45.45
2018-07-05T10:53:47.585Z,45.17
2018-07-05T10:54:56.739Z,45.45
2018-07-05T10:56:05.905Z,45.17
2018-07-05T10:57:15.049Z,45.26
2018-07-05T10:58:24.482Z,45.26
2018-07-05T10:59:34.150Z,45.45
2018-07-05T11:00:43.584Z,45.26
2018-07-05T11:01:53.260Z,45.17
2018-07-05T11:03:02.684Z,45.36
2018-07-05T11:04:11.850Z,45.17
2018-07-05T11:05:21.032Z,45.17
2018-07-05T11:06:30.461Z,45.26
2018-07-05T11:07:39.880Z,45.17
2018-07-05T11:08:49.365Z,44.97
2018-07-05T11:09:59.044Z,45.26
2018-07-05T11:11:08.457Z,45.26
2018-07-05T11:12:17.879Z,45.26
2018-07-05T11:13:27.575Z,45.26
2018-07-05T11:14:37.212Z,45.26
2018-07-05T11:15:46.690Z,45.17
2018-07-05T11:16:56.356Z,45.07
2018-07-05T11:18:05.310Z,45.17
2018-07-05T11:19:15.013Z,45.07
2018-07-05T11:20:24.177Z,45.17
2018-07-05T11:21:33.868Z,45.26
2018-07-05T11:22:43.307Z,45.26
2018-07-05T11:23:52.550Z,45.26
2018-07-05T11:25:01.963Z,45.45
2018-07-05T11:26:10.874Z,45.26
2018-07-05T11:27:20.080Z,45.26
2018-07-05T11:28:29.500Z,45.26
2018-07-05T11:29:38.921Z,45.36
2018-07-05T11:30:48.331Z,45.17
2018-07-05T11:31:57.742Z,45.36
2018-07-05T11:33:07.427Z,45.17
2018-07-05T11:34:17.096Z,45.17
2018-07-05T11:35:26.259Z,45.17
2018-07-05T11:36:35.693Z,45.17
2018-07-05T11:37:45.633Z,45.17
2018-07-05T11:38:55.040Z,45.36
2018-07-05T11:40:04.975Z,45.36
2018-07-05T11:41:14.150Z,45.26
2018-07-05T11:42:23.593Z,45.26
2018-07-05T11:43:33.139Z,45.26
2018-07-05T11:44:42.826Z,45.26
2018-07-05T11:45:51.989Z,45.17
2018-07-05T11:47:01.422Z,45.36
2018-07-05T11:48:10.608Z,45.26
2018-07-05T11:49:19.773Z,45.07
2018-07-05T11:50:28.962Z,45.07
2018-07-05T11:51:38.631Z,45.17
2018-07-05T11:52:48.066Z,45.07
2018-07-05T11:53:56.983Z,45.07
2018-07-05T11:55:06.399Z,45.07
2018-07-05T11:56:16.070Z,45.07
2018-07-05T11:57:26.015Z,45.07
2018-07-05T11:58:35.303Z,45.07
2018-07-05T11:59:45.470Z,45.26
2018-07-05T12:00:54.898Z,45.36
2018-07-05T12:02:04.173Z,45.36
2018-07-05T12:03:13.532Z,45.17
2018-07-05T12:04:22.972Z,45.26
2018-07-05T12:05:32.453Z,45.26
2018-07-05T12:06:42.397Z,45.26
2018-07-05T12:07:52.109Z,44.97
2018-07-05T12:09:01.807Z,44.97
2018-07-05T12:10:11.236Z,44.87
2018-07-05T12:11:20.405Z,45.26
2018-07-05T12:12:29.855Z,44.68
2018-07-05T12:13:39.274Z,44.87
2018-07-05T12:14:48.420Z,45.36
2018-07-05T12:15:57.571Z,44.87
2018-07-05T12:17:06.458Z,44.78
2018-07-05T12:18:16.131Z,44.87
2018-07-05T12:19:25.708Z,44.97
2018-07-05T12:20:35.377Z,44.78
2018-07-05T12:21:45.063Z,44.87
2018-07-05T12:22:54.237Z,44.68
2018-07-05T12:24:03.454Z,44.68
2018-07-05T12:25:13.276Z,44.87
2018-07-05T12:26:22.937Z,44.87
2018-07-05T12:27:31.847Z,44.97
2018-07-05T12:28:41.313Z,44.87
2018-07-05T12:29:50.726Z,44.97
2018-07-05T12:31:00.173Z,44.87
2018-07-05T12:32:09.322Z,44.87
2018-07-05T12:33:18.726Z,44.87
2018-07-05T12:34:28.657Z,44.87
2018-07-05T12:35:38.117Z,44.87
2018-07-05T12:36:47.849Z,44.87
2018-07-05T12:37:57.029Z,44.87
2018-07-05T12:39:06.716Z,44.89
2018-07-05T12:40:16.220Z,44.78
2018-07-05T12:41:26.350Z,44.78
2018-07-05T12:42:35.755Z,44.78
2018-07-05T12:43:45.432Z,44.97
2018-07-05T12:44:55.098Z,45.07
2018-07-05T12:46:04.576Z,45.07
2018-07-05T12:47:14.517Z,44.87
2018-07-05T12:48:24.318Z,44.78
2018-07-05T12:49:33.733Z,44.97
2018-07-05T12:50:43.174Z,44.97
2018-07-05T12:51:52.697Z,44.97
2018-07-05T12:53:02.424Z,44.97
2018-07-05T12:54:11.573Z,44.87
2018-07-05T12:55:21.252Z,44.87
2018-07-05T12:56:30.656Z,44.97
2018-07-05T12:57:40.347Z,44.97
2018-07-05T12:58:50.052Z,44.78
2018-07-05T12:59:59.036Z,44.97
2018-07-05T13:01:08.454Z,44.97
2018-07-05T13:02:17.103Z,44.97
2018-07-05T13:03:26.514Z,44.99
2018-07-05T13:04:35.683Z,44.97
2018-07-05T13:05:45.369Z,44.97
2018-07-05T13:06:54.527Z,45.07
2018-07-05T13:08:03.932Z,45.17
2018-07-05T13:09:13.342Z,44.99
2018-07-05T13:10:22.512Z,45.09
2018-07-05T13:11:32.180Z,44.78
2018-07-05T13:12:41.396Z,44.97
2018-07-05T13:13:50.880Z,45.07
2018-07-05T13:14:59.509Z,44.97
2018-07-05T13:16:09.179Z,44.97
2018-07-05T13:17:18.847Z,44.97
2018-07-05T13:18:28.532Z,45.07
2018-07-05T13:19:37.686Z,45.07
2018-07-05T13:20:47.342Z,44.97
2018-07-05T13:21:56.755Z,45.07
2018-07-05T13:23:06.678Z,44.97
2018-07-05T13:24:16.352Z,45.17
2018-07-05T13:25:25.759Z,45.17
2018-07-05T13:26:35.217Z,45.07
2018-07-05T13:27:44.899Z,45.17
2018-07-05T13:28:54.357Z,45.07
2018-07-05T13:30:04.054Z,45.17
2018-07-05T13:31:13.306Z,45.18
2018-07-05T13:32:22.209Z,45.09
2018-07-05T13:33:31.148Z,45.07
2018-07-05T13:34:41.066Z,45.18
2018-07-05T13:35:50.253Z,45.26
2018-07-05T13:36:59.673Z,45.17
2018-07-05T13:38:08.832Z,45.17
2018-07-05T13:39:18.242Z,45.07
2018-07-05T13:40:27.907Z,45.07
2018-07-05T13:41:37.323Z,45.17
2018-07-05T13:42:47.036Z,45.07
2018-07-05T13:43:56.453Z,45.09
2018-07-05T13:45:05.640Z,45.17
2018-07-05T13:46:15.320Z,45.09
2018-07-05T13:47:24.752Z,45.07
2018-07-05T13:48:34.173Z,45.07
2018-07-05T13:49:43.854Z,45.07
2018-07-05T13:50:52.762Z,45.07
2018-07-05T13:52:02.445Z,45.26
2018-07-05T13:53:11.613Z,44.97
2018-07-05T13:54:21.027Z,45.26
2018-07-05T13:55:30.190Z,44.87
2018-07-05T13:56:39.609Z,45.26
2018-07-05T13:57:49.412Z,44.97
2018-07-05T13:58:59.286Z,44.78
2018-07-05T14:00:08.971Z,44.78
2018-07-05T14:01:18.389Z,44.89
2018-07-05T14:02:27.287Z,44.79
2018-07-05T14:03:36.564Z,44.89
2018-07-05T14:04:46.078Z,44.97
2018-07-05T14:05:56.033Z,44.97
2018-07-05T14:07:05.694Z,44.87
2018-07-05T14:08:15.415Z,44.87
2018-07-05T14:09:24.578Z,44.48
2018-07-05T14:10:33.980Z,44.87
2018-07-05T14:11:43.663Z,44.89
2018-07-05T14:12:53.064Z,44.41
2018-07-05T14:14:02.489Z,44.78
2018-07-05T14:15:11.645Z,44.79
2018-07-05T14:16:21.310Z,44.51
2018-07-05T14:17:30.723Z,44.78
2018-07-05T14:18:40.649Z,44.38
2018-07-05T14:19:50.068Z,44.7
2018-07-05T14:20:58.967Z,44.78
2018-07-05T14:22:08.123Z,44.68
2018-07-05T14:23:17.542Z,44.7
2018-07-05T14:24:26.947Z,44.68
2018-07-05T14:25:36.371Z,44.58
2018-07-05T14:26:45.533Z,44.48
2018-07-05T14:27:55.201Z,44.7
2018-07-05T14:29:04.626Z,44.41
2018-07-05T14:30:13.779Z,44.6
2018-07-05T14:31:23.510Z,44.58
2018-07-05T14:32:33.178Z,44.58
2018-07-05T14:33:42.603Z,44.6
2018-07-05T14:34:52.545Z,44.48
2018-07-05T14:36:01.705Z,44.51
2018-07-05T14:37:11.400Z,44.58
2018-07-05T14:38:21.075Z,44.58
2018-07-05T14:39:29.985Z,44.48
2018-07-05T14:40:39.394Z,44.68
2018-07-05T14:41:48.811Z,44.58
2018-07-05T14:42:58.498Z,44.58
2018-07-05T14:44:07.660Z,44.58
2018-07-05T14:45:16.817Z,44.48
2018-07-05T14:46:26.778Z,44.48
2018-07-05T14:47:36.720Z,44.48
2018-07-05T14:48:46.380Z,44.58
2018-07-05T14:49:56.738Z,44.58
2018-07-05T14:51:06.166Z,44.51
2018-07-05T14:52:15.910Z,44.38
2018-07-05T14:53:25.927Z,44.48
2018-07-05T14:54:35.093Z,44.58
2018-07-05T14:55:45.046Z,44.51
2018-07-05T14:56:54.204Z,44.51
2018-07-05T14:58:03.644Z,44.68